Messines, Canada
Current Conditions -  °F | °C
As of 10:00 AM on Saturday 20 Dec 2014 (Local Time) from CYND Reporting Station
Clear Clear  
Wind Chill: 12°   Ceiling: Unl
Heat Index: 12°   Visibility: 15mi
Dew Point:   Wind: 0mph
Humidity: 79%   Direction: NA
Pressure: 30.37"   Gusts: NA
Location:  46.25°N, 76.02°W
Report Text: CYND 201500Z 00000KT 15SM SKC M11/M14 A3037 RMK SLP290
Loading
Personal Weather Stations






























Interactive Weather Map New forecast layout! Learn more

10-Day Weather Forecast

Advertisements
Track Severe Weather on mobile